Palestine, TX

7:17 PM CST on November 17, 2017 (GMT -0600)
Palestine Municipal

Weather History for KPSN - April, 2013

Change the Weather History Date:

Thursday, April 18, 2013

  Actual Average (KTYR) Record (KTYR)
Temperature  
Mean Temperature 59 °F -  
Max Temperature 73 °F 74 °F 95 °F (1987)
Min Temperature 45 °F 54 °F 31 °F (1921)
Degree Days  
Heating Degree Days 6    
Growing Degree Days 9 (Base 50)    
Moisture  
Dew Point 52 °F    
Average Humidity 82    
Maximum Humidity 97    
Minimum Humidity 62    
Precipitation  
Precipitation 0.80 in - - ()
Sea Level Pressure  
Sea Level Pressure 29.86 in    
Wind  
Wind Speed 13 mph (West)    
Max Wind Speed 21 mph    
Max Gust Speed 30 mph    
Visibility 8 miles    
Events Rain    
Averages and records for this station are not official NWS values.
T = Trace of Precipitation, MM = Missing Value Source: NWS Daily Summary

Daily Weather History Graph

Daily Weather History Graph

Search for Another Location

Airport or City:

Trip Planner

Search our weather history database for the weather conditions in past years. The results will help you decide how hot, cold, wet, or windy it might be!

Date:

Astronomy

Apr. 18, 2013 Rise Set
Actual Time 6:50 AM CDT 7:54 PM CDT
Civil Twilight 6:25 AM CDT 8:19 PM CDT
Nautical Twilight 5:55 AM CDT 8:49 PM CDT
Astronomical Twilight 5:24 AM CDT 9:20 PM CDT
Moon 1:06 PM CDT 2:04 AM CDT
Length of Visible Light 13h 54m
Length of Day
13h 03m
First Quarter, 52% of the Moon is Illuminated
Apr 18
First Quarter
Apr 25
Full
May 2
Last Quarter
May 9
New
May 17
First Quarter

Hourly Weather History & Observations

Time (CDT) Temp. Windchill Dew Point Humidity Pressure Visibility Wind Dir Wind Speed Gust Speed Precip Events Conditions
12:15 AM 73.0 °F - 67.1 °F 82% 29.76 in 7.0 mi SSE 13.8 mph 20.7 mph N/A   Overcast
12:35 AM 73.2 °F - 67.1 °F 81% 29.76 in 7.0 mi SSE 12.7 mph 19.6 mph N/A   Overcast
12:55 AM 73.4 °F - 66.6 °F 79% 29.76 in 3.0 mi SSE 13.8 mph 19.6 mph N/A   Haze
1:15 AM 73.4 °F - 66.4 °F 79% 29.76 in 5.0 mi SSE 15.0 mph 23.0 mph N/A   Haze
1:35 AM 73.4 °F - 66.2 °F 78% 29.74 in 5.0 mi SE 13.8 mph 21.9 mph N/A   Haze
1:55 AM 73.0 °F - 65.8 °F 78% 29.74 in 7.0 mi SSE 11.5 mph 23.0 mph N/A   Overcast
2:15 AM 72.9 °F - 65.8 °F 79% 29.74 in 4.0 mi SSE 12.7 mph 18.4 mph N/A   Haze
2:35 AM 72.7 °F - 65.5 °F 78% 29.73 in 5.0 mi SSE 16.1 mph 24.2 mph N/A   Haze
2:55 AM 72.7 °F - 65.3 °F 78% 29.72 in 7.0 mi SSE 16.1 mph 24.2 mph N/A   Overcast
3:15 AM 72.5 °F - 65.3 °F 78% 29.71 in 7.0 mi SSE 16.1 mph 25.3 mph N/A   Overcast
3:35 AM 72.5 °F - 64.9 °F 77% 29.70 in 7.0 mi SSE 16.1 mph 26.5 mph N/A   Overcast
3:55 AM 72.5 °F - 64.9 °F 77% 29.70 in 7.0 mi South 10.4 mph 26.5 mph N/A   Overcast
4:15 AM 72.5 °F - 64.8 °F 77% 29.70 in 5.0 mi SSE 17.3 mph 25.3 mph N/A   Haze
4:35 AM 72.3 °F - 64.8 °F 77% 29.70 in 7.0 mi SSE 11.5 mph 20.7 mph N/A   Overcast
4:55 AM 72.1 °F - 64.8 °F 78% 29.69 in 5.0 mi SSE 12.7 mph 21.9 mph N/A   Haze
5:15 AM 72.0 °F - 64.8 °F 78% 29.69 in 7.0 mi SSE 12.7 mph 21.9 mph N/A   Scattered Clouds
5:35 AM 71.8 °F - 64.8 °F 78% 29.68 in 10.0 mi SSE 12.7 mph 21.9 mph N/A   Mostly Cloudy
5:55 AM 71.8 °F - 64.9 °F 79% 29.68 in 5.0 mi SSE 10.4 mph 21.9 mph N/A   Haze
6:15 AM 71.6 °F - 64.9 °F 79% 29.69 in 10.0 mi SSE 16.1 mph 26.5 mph N/A   Mostly Cloudy
6:35 AM 71.6 °F - 65.1 °F 80% 29.70 in 10.0 mi South 9.2 mph 19.6 mph N/A   Mostly Cloudy
6:55 AM 71.4 °F - 64.9 °F 80% 29.69 in 5.0 mi SE 10.4 mph 20.7 mph N/A   Haze
7:15 AM 71.6 °F - 64.9 °F 79% 29.68 in 5.0 mi SSE 15.0 mph 23.0 mph N/A   Haze
7:35 AM 71.8 °F - 65.1 °F 79% 29.74 in 10.0 mi SSW 11.5 mph 18.4 mph N/A   Overcast
7:55 AM 71.6 °F - 65.3 °F 80% 29.76 in 10.0 mi SW 8.1 mph - N/A   Overcast
8:15 AM 71.1 °F - 65.7 °F 83% 29.76 in 4.0 mi SW 9.2 mph - N/A Rain Rain
8:35 AM 64.0 °F - 61.2 °F 90% 29.79 in 1.5 mi NW 16.1 mph 20.7 mph 0.10 in Rain Heavy Rain
8:55 AM 60.3 °F - 58.5 °F 94% 29.84 in 2.0 mi West 20.7 mph 29.9 mph 0.26 in Rain Heavy Rain
9:15 AM 57.2 °F - 55.9 °F 96% 29.84 in 3.0 mi WNW 13.8 mph 21.9 mph 0.12 in Rain Heavy Rain
9:35 AM 53.4 °F - 52.2 °F 95% 29.84 in 3.0 mi NW 15.0 mph 24.2 mph 0.20 in Rain Heavy Rain
9:55 AM 52.3 °F - 51.4 °F 97% 29.85 in 2.5 mi NW 10.4 mph 20.7 mph 0.30 in Rain Rain
10:15 AM 51.6 °F - 50.7 °F 97% 29.85 in 10.0 mi NW 11.5 mph 20.7 mph 0.01 in Rain Light Rain
10:35 AM 50.9 °F - 50.0 °F 97% 29.86 in 10.0 mi NW 16.1 mph 21.9 mph 0.01 in   Drizzle
10:55 AM 50.4 °F - 49.5 °F 97% 29.90 in 7.0 mi West 13.8 mph 20.7 mph 0.05 in Rain Heavy Rain
11:15 AM 48.4 °F - 47.5 °F 97% 29.91 in 7.0 mi WNW 12.7 mph 19.6 mph 0.02 in Rain Rain
11:35 AM 47.3 °F - 46.4 °F 97% 29.90 in 10.0 mi NW 16.1 mph - 0.04 in Rain Rain
11:55 AM 47.3 °F - 45.9 °F 95% 29.93 in 2.5 mi NW 10.4 mph 24.2 mph 0.11 in Rain Rain
12:15 PM 47.5 °F - 45.7 °F 93% 29.93 in 10.0 mi NW 13.8 mph 18.4 mph N/A   Overcast
12:35 PM 47.3 °F - 45.1 °F 92% 29.93 in 10.0 mi NW 11.5 mph - N/A Rain Light Rain
12:55 PM 46.8 °F - 44.8 °F 93% 29.93 in 10.0 mi WNW 15.0 mph 19.6 mph N/A   Light Drizzle
1:15 PM 45.9 °F 40.0 °F 43.7 °F 92% 29.92 in 7.0 mi NW 12.7 mph 21.9 mph 0.01 in Rain Rain
1:35 PM 46.4 °F 41.9 °F 44.2 °F 92% 29.93 in 10.0 mi WNW 9.2 mph - 0.01 in   Overcast
1:55 PM 46.8 °F - 44.4 °F 92% 29.93 in 10.0 mi WNW 8.1 mph 19.6 mph 0.01 in Rain Light Rain
2:15 PM 46.6 °F - 44.1 °F 91% 29.93 in 10.0 mi WNW 11.5 mph 20.7 mph N/A   Overcast
2:35 PM 46.8 °F - 44.2 °F 91% 29.95 in 10.0 mi West 10.4 mph - N/A   Overcast
2:55 PM 46.4 °F 41.5 °F 44.1 °F 92% 29.94 in 7.0 mi NW 10.4 mph - 0.04 in Rain Light Rain
3:15 PM 46.6 °F - 44.2 °F 92% 29.93 in 10.0 mi NW 11.5 mph 17.3 mph 0.01 in Rain Light Rain
3:35 PM 46.8 °F - 43.9 °F 90% 29.93 in 10.0 mi NW 9.2 mph 17.3 mph 0.03 in Rain Light Rain
3:55 PM 47.3 °F - 43.7 °F 87% 29.93 in 10.0 mi NW 11.5 mph 19.6 mph 0.03 in   Overcast
4:15 PM 47.5 °F - 43.9 °F 87% 29.93 in 10.0 mi WNW 6.9 mph - N/A   Overcast
4:35 PM 47.8 °F - 43.3 °F 84% 29.94 in 10.0 mi NW 11.5 mph 17.3 mph N/A   Overcast
4:55 PM 48.7 °F - 44.1 °F 84% 29.94 in 10.0 mi NW 6.9 mph - N/A   Overcast
5:15 PM 49.8 °F - 43.5 °F 79% 29.94 in 10.0 mi NW 9.2 mph - N/A   Overcast
5:35 PM 50.5 °F - 42.8 °F 75% 29.95 in 10.0 mi NW 13.8 mph 19.6 mph N/A   Overcast
5:55 PM 50.9 °F - 41.7 °F 71% 29.95 in 10.0 mi NNW 12.7 mph 21.9 mph N/A   Mostly Cloudy
6:15 PM 50.9 °F - 41.5 °F 70% 29.95 in 10.0 mi NW 9.2 mph - N/A   Scattered Clouds
6:35 PM 51.4 °F - 42.3 °F 71% 29.96 in 10.0 mi NW 10.4 mph - N/A   Scattered Clouds
6:55 PM 51.8 °F - 41.7 °F 68% 29.96 in 10.0 mi NW 8.1 mph - N/A   Clear
7:15 PM 51.6 °F - 41.9 °F 69% 29.97 in 10.0 mi NW 8.1 mph - N/A   Clear
7:35 PM 51.4 °F - 41.9 °F 70% 29.98 in 10.0 mi NW 8.1 mph - N/A   Clear
7:55 PM 51.1 °F - 41.9 °F 71% 29.99 in 10.0 mi NW 9.2 mph - N/A   Clear
8:15 PM 50.9 °F - 41.2 °F 69% 30.01 in 10.0 mi NNW 9.2 mph - N/A   Clear
8:35 PM 50.9 °F - 40.6 °F 68% 30.02 in 10.0 mi NW 9.2 mph - N/A   Clear
10:35 PM 49.1 °F - 37.4 °F 64% 30.12 in 10.0 mi NW 11.5 mph - N/A   Clear
10:55 PM 48.6 °F - 36.7 °F 64% 30.13 in 10.0 mi NNW 10.4 mph 16.1 mph N/A   Clear
11:15 PM 48.2 °F - 36.1 °F 63% 30.14 in 10.0 mi NW 12.7 mph 17.3 mph N/A   Clear
11:35 PM 47.8 °F - 35.6 °F 63% 30.15 in 10.0 mi NNW 12.7 mph 19.6 mph N/A   Clear
11:55 PM 47.3 °F - 35.1 °F 62% 30.15 in 10.0 mi NNW 12.7 mph 18.4 mph N/A   Clear